This is the latest recevied weather packets stored in our database for station/object K1AWR. If no packets are shown the sender has not sent any weather packets the latest 10 day(s).
| Time | Temp. | Humidity | Pressure | Rain* | Wind** | Luminosity | Snow |
|---|---|---|---|---|---|---|---|
| 1777646544 | 12.78° C | 50% | 1012.1 hPa | 0 mm | - | 168 W/m² | - |
| 1777646240 | 11.67° C | 54% | 1012.1 hPa | 0 mm | - | 554 W/m² | - |
| 1777645938 | 11.67° C | 51% | 1012 hPa | 0 mm | - | 158 W/m² | - |
| 1777645635 | 12.22° C | 53% | 1012.1 hPa | 0 mm | - | 163 W/m² | - |
| 1777645330 | 12.78° C | 51% | 1012 hPa | 0 mm | - | 210 W/m² | - |
| 1777645026 | 12.78° C | 52% | 1012.2 hPa | 0 mm | - | 181 W/m² | - |
| 1777644724 | 12.78° C | 52% | 1012.3 hPa | 0 mm | - | 544 W/m² | - |
| 1777644420 | 12.22° C | 51% | 1012.2 hPa | 0 mm | - | 506 W/m² | - |
| 1777644117 | 12.22° C | 52% | 1012.1 hPa | 0 mm | - | 260 W/m² | - |
| 1777643813 | 11.67° C | 55% | 1012.2 hPa | 0 mm | - | 452 W/m² | - |
| 1777643510 | 11.67° C | 53% | 1012.2 hPa | 0 mm | - | 56 W/m² | - |
| 1777643207 | 11.67° C | 60% | 1012.3 hPa | 0 mm | - | 487 W/m² | - |
| 1777642904 | 11.67° C | 54% | 1012.2 hPa | 0 mm | - | 125 W/m² | - |
| 1777642601 | 12.22° C | 56% | 1012.3 hPa | 0 mm | - | 205 W/m² | - |
| 1777642298 | 12.78° C | 53% | 1012.4 hPa | 0 mm | - | 179 W/m² | - |
| 1777641994 | 12.22° C | 55% | 1012.3 hPa | 0 mm | - | 571 W/m² | - |
| 1777641690 | 12.78° C | 57% | 1012.2 hPa | 0 mm | - | 529 W/m² | - |
| 1777641385 | 11.11° C | 58% | 1012.4 hPa | 0 mm | - | 508 W/m² | - |
| 1777641081 | 10.56° C | 59% | 1012.3 hPa | 0 mm | - | 462 W/m² | - |
| 1777640777 | 10° C | 61% | 1012.2 hPa | 0 mm | - | 399 W/m² | - |
| 1777640474 | 10° C | 61% | 1012.6 hPa | 0 mm | - | 65 W/m² | - |
| 1777640171 | 10.56° C | 62% | 1012.4 hPa | 0 mm | - | 423 W/m² | - |
| 1777639868 | 10.56° C | 63% | 1012.2 hPa | 0 mm | - | 411 W/m² | - |
| 1777639565 | 10.56° C | 63% | 1012.2 hPa | 0 mm | - | 373 W/m² | - |
| 1777639262 | 10.56° C | 64% | 1012.4 hPa | 0 mm | - | 376 W/m² | - |
* Rain latest hour (hover to see other rain measurements)
** Current wind speed in m/s (hover to see current wind gust speed)